Terminal Aerodrome Forecast
Issued by NWS Wilmington, OH

Home | Current Version | Previous Version | Text Only | Print | Product List | Glossary On
Versions: 1 2 3 4 5 6 7 8 9 10 11 12 13 14 15 16 17 18 19 20
000
FTUS41 KILN 261132
TAFDAY
TAF
KDAY 261132Z 2612/2712 27007KT P6SM SCT250
     FM270000 18004KT P6SM BKN120
     FM270300 16005KT P6SM VCSH BKN060
     FM270800 18005KT P6SM BKN015=

USA.gov is the U.S. government's official web portal to all federal, state and local government web resources and services.